Ocean Moon — 3EVH8 — position and weather

sailwx.info

Track history (hours):
 
Tides and Currents Weather Stations Pressure Air Temp Water Temp Dewpoint Dewpoint Depression Visibility Wind Speed Wind Dir Waves Ship Positions

Ocean Moon

Last reported at 2018-May-06 17:39 UTC. Time now 2018-May-24 21:33 UTC.
Position N 10°20' W 061°50'.
Warning: this ship's position is 18 days out of date.

Length 92 m; draft 5.4 m.

Type: Tanker. MMSI: 353455000.

Date/timePositionNaut miles runAvg speedWind from/ knotsBaromVisibWave heightAir tempDewpointWater temp
2018-May-06 17:39N 10°20' W 061°50'2 9.7
2018-May-06 17:24N 10°20' W 061°47'4 9.7
2018-May-06 17:00N 10°20' W 061°43'5 9.7
2018-May-06 16:29N 10°19' W 061°38'5 9.9
2018-May-06 16:00N 10°19' W 061°33'4 0.7
2018-May-06 10:50N 10°19' W 061°29'0 0.0
2018-May-05 21:34N 10°19' W 061°29'1 4.1
2018-May-05 21:19N 10°19' W 061°30'1 0.0
2018-May-04 20:50N 10°19' W 061°31'5 9.5
2018-May-04 20:21N 10°23' W 061°33'3 9.9
2018-May-04 20:00N 10°26' W 061°35'510.2
2018-May-04 19:30N 10°31' W 061°34'510.3
2018-May-04 19:00N 10°36' W 061°33'1 2.2
2018-May-04 18:28N 10°37' W 061°32'0 0.1
2018-May-04 17:58N 10°37' W 061°32'0 0.0
2018-May-04 17:28N 10°37' W 061°32'0 0.0
2018-May-04 16:58N 10°37' W 061°32'0 0.0
2018-May-04 16:28N 10°37' W 061°32'0 0.0
2018-May-04 15:58N 10°37' W 061°32'0 0.0
2018-May-04 15:28N 10°37' W 061°32'0 0.0
2018-May-04 14:58N 10°37' W 061°32'0 0.0
2018-May-04 14:28N 10°37' W 061°32'0 0.0
2018-May-04 13:58N 10°37' W 061°32'0 0.0
2018-May-04 13:28N 10°37' W 061°32'0 0.0
2018-May-04 12:58N 10°37' W 061°32'0 0.0
2018-May-04 12:28N 10°37' W 061°32'0 0.0
2018-May-04 11:58N 10°37' W 061°32'0 0.0
2018-May-04 11:28N 10°37' W 061°32'0 0.1
2018-May-04 10:58N 10°37' W 061°32'0 0.0
2018-May-04 10:28N 10°37' W 061°32'0 0.0
2018-May-04 09:58N 10°37' W 061°32'0 0.0
2018-May-04 09:28N 10°37' W 061°32'0 0.0
2018-May-04 08:58N 10°37' W 061°32'0 0.0
2018-May-04 08:28N 10°37' W 061°32'0 0.0
2018-May-04 07:58N 10°37' W 061°32'0 0.0
2018-May-04 07:28N 10°37' W 061°32'0 0.0
2018-May-04 06:58N 10°37' W 061°32'0 0.0
2018-May-04 06:28N 10°37' W 061°32'0 0.0
2018-May-04 05:58N 10°37' W 061°32'0 0.0
2018-May-04 05:25N 10°37' W 061°32'0 0.0
2018-May-04 04:58N 10°37' W 061°32'0 0.0
2018-May-04 04:28N 10°37' W 061°32'0 0.0
2018-May-04 03:58N 10°37' W 061°32'0 0.0
2018-May-04 03:28N 10°37' W 061°32'0 0.0
2018-May-04 02:58N 10°37' W 061°32'0 0.0
2018-May-04 02:28N 10°37' W 061°32'0 0.0
2018-May-04 01:55N 10°37' W 061°32'0 0.0
2018-May-04 01:28N 10°37' W 061°32'0 0.0
2018-May-04 00:55N 10°37' W 061°32'0 0.0
2018-May-04 00:28N 10°37' W 061°32'0 0.0
2018-May-03 23:58N 10°37' W 061°32'0 0.0
2018-May-03 23:28N 10°37' W 061°32'0 0.0
2018-May-03 22:58N 10°37' W 061°32'0 0.0
2018-May-03 22:28N 10°37' W 061°32'0 0.0
2018-May-03 21:58N 10°37' W 061°32'0 0.0
2018-May-03 21:28N 10°37' W 061°32'0 0.0
2018-May-03 20:58N 10°37' W 061°32'0 0.0
2018-May-03 20:28N 10°37' W 061°32'0 0.0
2018-May-03 19:58N 10°37' W 061°32'0 0.0
2018-May-03 19:28N 10°37' W 061°32'0 0.0
2018-May-03 18:55N 10°37' W 061°32'0 0.0
2018-May-03 18:28N 10°37' W 061°32'0 0.0
2018-May-03 17:58N 10°37' W 061°32'0 0.0
2018-May-03 17:25N 10°37' W 061°32'0 0.0
2018-May-03 16:58N 10°37' W 061°32'0 0.0
2018-May-03 16:28N 10°37' W 061°32'0 0.0
2018-May-03 15:58N 10°37' W 061°32'0 0.0
2018-May-03 15:28N 10°37' W 061°32'0 0.0
2018-May-03 14:58N 10°37' W 061°32'0 0.0
2018-May-03 14:28N 10°37' W 061°32'0 0.0
2018-May-03 13:58N 10°37' W 061°32'0 0.0
2018-May-03 13:28N 10°37' W 061°32'0 0.0
2018-May-03 12:58N 10°37' W 061°32'0 0.0
2018-May-03 12:28N 10°37' W 061°32'0 0.0
2018-May-03 11:58N 10°37' W 061°32'0 0.0
2018-May-03 11:28N 10°37' W 061°32'0 0.0
2018-May-03 10:58N 10°37' W 061°32'0 0.0
2018-May-03 10:28N 10°37' W 061°32'0 0.0
2018-May-03 09:58N 10°37' W 061°32'0 0.0
2018-May-03 09:28N 10°37' W 061°32'0 0.0
2018-May-03 08:58N 10°37' W 061°32'0 0.0
2018-May-03 08:28N 10°37' W 061°32'0 0.0
2018-May-03 07:58N 10°37' W 061°32'0 0.0
2018-May-03 07:28N 10°37' W 061°32'0 0.0
2018-May-03 06:58N 10°37' W 061°32'0 0.0
2018-May-03 06:28N 10°37' W 061°32'0 0.0
2018-May-03 05:58N 10°37' W 061°32'0 0.0
2018-May-03 05:28N 10°37' W 061°32'0 0.0
2018-May-03 04:58N 10°37' W 061°32'0 0.0
2018-May-03 04:28N 10°37' W 061°32'0 0.0
2018-May-03 03:58N 10°37' W 061°32'0 0.0
2018-May-03 03:28N 10°37' W 061°32'0 0.0
2018-May-03 02:58N 10°37' W 061°32'0 0.0
2018-May-03 02:28N 10°37' W 061°32'0 0.0
2018-May-03 01:58N 10°37' W 061°32'0 0.0
2018-May-03 01:28N 10°37' W 061°32'0 0.0
2018-May-03 00:58N 10°37' W 061°32'0 0.0
2018-May-03 00:28N 10°37' W 061°32'0 0.0
2018-May-02 23:55N 10°37' W 061°32'0 0.0
2018-May-02 23:28N 10°37' W 061°32'0 0.0
2018-May-02 22:58N 10°37' W 061°32'0 0.0
2018-May-02 22:28N 10°37' W 061°32'0 0.0
2018-May-02 21:58N 10°37' W 061°32'0 0.0
2018-May-02 21:25N 10°37' W 061°32'0 0.0
2018-May-02 20:58N 10°37' W 061°32'0 0.0
2018-May-02 20:28N 10°37' W 061°32'0 0.0
2018-May-02 19:58N 10°37' W 061°32'0 0.0
2018-May-02 19:28N 10°37' W 061°32'0 0.0
2018-May-02 18:55N 10°37' W 061°32'0 0.0
2018-May-02 18:28N 10°37' W 061°32'0 0.0
2018-May-02 17:58N 10°37' W 061°32'0 0.1
2018-May-02 17:31N 10°37' W 061°32'0 0.1
2018-May-02 16:58N 10°37' W 061°32'0 0.0
2018-May-02 16:28N 10°37' W 061°32'0 0.0
2018-May-02 15:58N 10°37' W 061°32'0 0.0
2018-May-02 15:28N 10°37' W 061°32'0 0.0
2018-May-02 14:58N 10°37' W 061°32'0 0.0
2018-May-02 14:28N 10°37' W 061°32'0 0.0
2018-May-02 13:58N 10°37' W 061°32'0 0.0
2018-May-02 13:28N 10°37' W 061°32'0 0.0
2018-May-02 12:58N 10°37' W 061°32'0 0.0
2018-May-02 12:28N 10°37' W 061°32'0 0.0
2018-May-02 11:58N 10°37' W 061°32'0 0.0
2018-May-02 11:28N 10°37' W 061°32'0 0.0
2018-May-02 10:57N 10°37' W 061°32'0 0.0
2018-May-02 10:28N 10°37' W 061°32'0 0.0
2018-May-02 09:58N 10°37' W 061°32'0 0.1
2018-May-02 09:27N 10°37' W 061°32'0 0.0
2018-May-02 09:00N 10°37' W 061°32'0 0.0
2018-May-02 08:28N 10°37' W 061°32'0 0.0
2018-May-02 07:58N 10°37' W 061°32'0 0.0
2018-May-02 07:30N 10°37' W 061°32'0 0.0
2018-May-02 06:58N 10°37' W 061°32'0 0.0
2018-May-02 06:28N 10°37' W 061°32'0 0.0
2018-May-02 05:58N 10°37' W 061°32'0 0.1
2018-May-02 05:27N 10°37' W 061°32'0 0.0
2018-May-02 04:58N 10°37' W 061°32'0 0.0
2018-May-02 04:28N 10°37' W 061°32'0 0.0
2018-May-02 04:00N 10°37' W 061°32'0 0.0
2018-May-02 03:28N 10°37' W 061°32'0 0.0
2018-May-02 03:01N 10°37' W 061°32'0 0.0
2018-May-02 02:28N 10°37' W 061°32'0 0.0
2018-May-02 01:58N 10°37' W 061°32'0 0.0
2018-May-02 01:27N 10°37' W 061°32'0 0.0
2018-May-02 00:58N 10°37' W 061°32'0 0.0
2018-May-02 00:28N 10°37' W 061°32'0 0.0
2018-May-01 23:58N 10°37' W 061°32'0 0.0
2018-May-01 23:30N 10°37' W 061°32'0 0.0
2018-May-01 22:57N 10°37' W 061°32'0 0.0
2018-May-01 22:30N 10°37' W 061°32'0 0.0
2018-May-01 21:58N 10°37' W 061°32'0 0.0
2018-May-01 21:31N 10°37' W 061°32'0 0.0
2018-May-01 20:58N 10°37' W 061°32'0 0.0
2018-May-01 20:28N 10°37' W 061°32'0 0.0
2018-May-01 20:00N 10°37' W 061°32'0 0.0
2018-May-01 19:31N 10°37' W 061°32'0 0.0
2018-May-01 19:00N 10°37' W 061°32'0 0.0
2018-May-01 18:30N 10°37' W 061°32'0 0.0
2018-May-01 17:57N 10°37' W 061°32'0 0.0
2018-May-01 17:31N 10°37' W 061°32'0 0.0
2018-May-01 17:01N 10°37' W 061°32'0 0.0
2018-May-01 16:30N 10°37' W 061°32'0 0.1
2018-May-01 16:00N 10°37' W 061°32'0 0.0
2018-May-01 15:30N 10°37' W 061°32'0 0.0
2018-May-01 15:00N 10°37' W 061°32'0 0.0
2018-May-01 14:27N 10°37' W 061°32'0 0.0
2018-May-01 14:00N 10°37' W 061°32'0 0.0
2018-May-01 13:30N 10°37' W 061°32'0 0.0
2018-May-01 13:01N 10°37' W 061°32'0 0.0
2018-May-01 12:30N 10°37' W 061°32'0 0.0
2018-May-01 12:01N 10°37' W 061°32'0 0.0
2018-May-01 11:31N 10°37' W 061°32'0 0.0
2018-May-01 11:01N 10°37' W 061°32'0 0.0
2018-May-01 10:31N 10°37' W 061°32'0 0.0
2018-May-01 10:00N 10°37' W 061°32'0 0.0
2018-May-01 09:30N 10°37' W 061°32'0 0.0
2018-May-01 09:00N 10°37' W 061°32'0 0.0
2018-May-01 08:30N 10°37' W 061°32'0 0.0
2018-May-01 08:00N 10°37' W 061°32'0 0.0
2018-May-01 07:30N 10°37' W 061°32'0 0.0
2018-May-01 07:00N 10°37' W 061°32'0 0.0
2018-May-01 06:30N 10°37' W 061°32'0 0.1
2018-May-01 06:00N 10°37' W 061°32'0 0.2
2018-May-01 05:30N 10°37' W 061°32'0 0.0
2018-May-01 05:00N 10°37' W 061°32'0 0.0
2018-May-01 04:31N 10°37' W 061°32'0 0.1
2018-May-01 04:00N 10°37' W 061°32'0 0.1
2018-May-01 03:30N 10°37' W 061°32'0 0.0
2018-May-01 03:00N 10°37' W 061°32'0 0.0
2018-May-01 02:31N 10°37' W 061°32'0 0.0
2018-May-01 02:00N 10°37' W 061°32'0 0.0
2018-May-01 01:30N 10°37' W 061°32'0 0.0
2018-May-01 01:00N 10°37' W 061°32'0 0.0
2018-May-01 00:30N 10°37' W 061°32'0 0.0
2018-May-01 00:00N 10°37' W 061°32'0 0.0
2018-Apr-30 23:24N 10°37' W 061°32'0 0.0
2018-Apr-30 22:57N 10°37' W 061°32'0 0.0
2018-Apr-30 22:30N 10°37' W 061°32'0 0.0
2018-Apr-30 22:00N 10°37' W 061°32'0 0.0
2018-Apr-30 21:30N 10°37' W 061°32'0 0.0
2018-Apr-30 21:00N 10°37' W 061°32'0 0.0
2018-Apr-30 20:30N 10°37' W 061°32'0 0.0
2018-Apr-30 20:00N 10°37' W 061°32'0 0.0
2018-Apr-30 19:30N 10°37' W 061°32'0 0.0
2018-Apr-30 19:00N 10°37' W 061°32'0 0.0
2018-Apr-30 18:30N 10°37' W 061°32'0 0.0
2018-Apr-30 17:57N 10°37' W 061°32'0 0.0
2018-Apr-30 17:30N 10°37' W 061°32'0 0.0
2018-Apr-30 17:00N 10°37' W 061°32'0 0.0
2018-Apr-30 16:30N 10°37' W 061°32'0 0.0
2018-Apr-30 16:00N 10°37' W 061°32'0 0.0
2018-Apr-30 15:30N 10°37' W 061°32'0 0.0
2018-Apr-30 15:00N 10°37' W 061°32'0 0.0
2018-Apr-30 14:30N 10°37' W 061°32'0 0.0
2018-Apr-30 14:00N 10°37' W 061°32'0 0.0
2018-Apr-30 13:30N 10°37' W 061°32'0 0.0
2018-Apr-30 13:00N 10°37' W 061°32'0 0.0
2018-Apr-30 12:30N 10°37' W 061°32'0 0.0
2018-Apr-30 11:57N 10°37' W 061°32'0 0.0
2018-Apr-30 11:30N 10°37' W 061°32'0 0.0
2018-Apr-30 11:00N 10°37' W 061°32'0 0.0
2018-Apr-30 10:30N 10°37' W 061°32'0 0.0
2018-Apr-30 10:00N 10°37' W 061°32'0 0.0
2018-Apr-30 09:30N 10°37' W 061°32'0 0.0
2018-Apr-30 09:00N 10°37' W 061°32'0 0.0
2018-Apr-30 08:30N 10°37' W 061°32'0 0.0
2018-Apr-30 08:00N 10°37' W 061°32'0 0.0
2018-Apr-30 07:30N 10°37' W 061°32'0 0.1
2018-Apr-30 07:00N 10°37' W 061°32'0 0.0
2018-Apr-30 06:30N 10°37' W 061°32'0 0.0
2018-Apr-30 06:00N 10°37' W 061°32'0 0.0
2018-Apr-30 05:30N 10°37' W 061°32'0 0.0
2018-Apr-30 05:00N 10°37' W 061°32'0 0.0
2018-Apr-30 04:27N 10°37' W 061°32'0 0.1
2018-Apr-30 04:00N 10°37' W 061°32'0 0.0
2018-Apr-30 03:30N 10°37' W 061°32'0 0.1
2018-Apr-30 03:00N 10°37' W 061°32'0 0.0
2018-Apr-30 02:30N 10°37' W 061°32'0 0.0
2018-Apr-30 02:00N 10°37' W 061°32'0 0.0
2018-Apr-30 01:30N 10°37' W 061°32'0 0.0
2018-Apr-30 01:00N 10°37' W 061°32'0 0.0
2018-Apr-30 00:30N 10°37' W 061°32'0 0.0
2018-Apr-30 00:00N 10°37' W 061°32'0 0.0
2018-Apr-29 23:30N 10°37' W 061°32'0 0.0
2018-Apr-29 23:00N 10°37' W 061°32'0 0.0
2018-Apr-29 22:30N 10°37' W 061°32'0 0.0
2018-Apr-29 22:00N 10°37' W 061°32'0 0.0
2018-Apr-29 21:30N 10°37' W 061°32'0 0.0
2018-Apr-29 21:00N 10°37' W 061°32'0 0.0
2018-Apr-29 20:30N 10°37' W 061°32'0 0.0
2018-Apr-29 20:00N 10°37' W 061°32'0 0.0
2018-Apr-29 19:30N 10°37' W 061°32'0 0.0
2018-Apr-29 19:00N 10°37' W 061°32'0 0.0
2018-Apr-29 18:30N 10°37' W 061°32'0 0.0
2018-Apr-29 17:54N 10°37' W 061°32'0 0.0
2018-Apr-29 17:30N 10°37' W 061°32'0 0.0
2018-Apr-29 17:00N 10°37' W 061°32'0 0.0
2018-Apr-29 16:30N 10°37' W 061°32'0 0.0
2018-Apr-29 16:00N 10°37' W 061°32'0 0.0
2018-Apr-29 15:30N 10°37' W 061°32'0 0.0
2018-Apr-29 15:00N 10°37' W 061°32'0 0.0
2018-Apr-29 14:30N 10°37' W 061°32'0 0.0
2018-Apr-29 14:00N 10°37' W 061°32'0 0.0
2018-Apr-29 13:30N 10°37' W 061°32'0 0.1
2018-Apr-29 13:00N 10°37' W 061°32'0 0.0
2018-Apr-29 12:30N 10°37' W 061°32'0 0.0
2018-Apr-29 12:00N 10°37' W 061°32'0 0.0
2018-Apr-29 11:30N 10°37' W 061°32'0 0.0
2018-Apr-29 11:00N 10°37' W 061°32'0 0.0
2018-Apr-29 10:27N 10°37' W 061°32'0 0.0
2018-Apr-29 10:00N 10°37' W 061°32'0 0.0
2018-Apr-29 09:30N 10°37' W 061°32'0 0.0
2018-Apr-29 09:00N 10°37' W 061°32'0 0.0
2018-Apr-29 08:30N 10°37' W 061°32'0 0.0
2018-Apr-29 08:00N 10°37' W 061°32'0 0.0
2018-Apr-29 07:30N 10°37' W 061°32'0 0.0
2018-Apr-29 07:00N 10°37' W 061°32'0 0.0
2018-Apr-29 06:30N 10°37' W 061°32'0 0.0
2018-Apr-29 06:00N 10°37' W 061°32'0 0.0
2018-Apr-29 05:30N 10°37' W 061°32'0 0.0
2018-Apr-29 05:00N 10°37' W 061°32'0 0.0
2018-Apr-29 04:30N 10°37' W 061°32'0 0.0
2018-Apr-29 04:00N 10°37' W 061°32'0 0.0
2018-Apr-29 03:30N 10°37' W 061°32'0 0.0
2018-Apr-29 02:57N 10°37' W 061°32'0 0.0
2018-Apr-29 02:30N 10°37' W 061°32'0 0.0
2018-Apr-29 02:00N 10°37' W 061°32'0 0.0
2018-Apr-29 01:30N 10°37' W 061°32'0 0.0
2018-Apr-29 01:00N 10°37' W 061°32'0 0.0
2018-Apr-29 00:30N 10°37' W 061°32'0 0.0
2018-Apr-29 00:00N 10°37' W 061°32'0 0.0
2018-Apr-28 23:30N 10°37' W 061°32'0 0.0
2018-Apr-28 23:00N 10°37' W 061°32'0 0.0
2018-Apr-28 22:30N 10°37' W 061°32'0 0.0
2018-Apr-28 22:00N 10°37' W 061°32'0 0.0
2018-Apr-28 21:27N 10°37' W 061°32'0 0.0
2018-Apr-28 21:00N 10°37' W 061°32'0 0.0
2018-Apr-28 20:30N 10°37' W 061°32'0 0.0
2018-Apr-28 20:00N 10°37' W 061°32'0 0.0
2018-Apr-28 19:26N 10°37' W 061°32'0 0.1
2018-Apr-28 18:59N 10°37' W 061°32'0 0.2
2018-Apr-28 18:31N 10°37' W 061°32'2 4.9
2018-Apr-28 18:00N 10°36' W 061°34'510.0
2018-Apr-28 17:30N 10°36' W 061°40'510.7
2018-Apr-28 17:01N 10°38' W 061°44'12 6.7
2018-Apr-28 15:11N 10°48' W 061°37'210.6
2018-Apr-28 14:59N 10°49' W 061°35'  
Track history (hours):
 
Tides and Currents Weather Stations Pressure Air Temp Water Temp Dewpoint Dewpoint Depression Visibility Wind Speed Wind Dir Waves Ship Positions

Ocean Moon

Last reported at 2018-May-06 17:39 UTC. Time now 2018-May-24 21:33 UTC.
Position N 10°20' W 061°50'.
Warning: this ship's position is 18 days out of date.

Length 92 m; draft 5.4 m.

Type: Tanker. MMSI: 353455000.

Date/timePositionNaut miles runAvg speedWind from/ knotsBaromVisibWave heightAir tempDewpointWater temp
2018-May-06 17:39N 10°20' W 061°50'2 9.7
2018-May-06 17:24N 10°20' W 061°47'4 9.7
2018-May-06 17:00N 10°20' W 061°43'5 9.7
2018-May-06 16:29N 10°19' W 061°38'5 9.9
2018-May-06 16:00N 10°19' W 061°33'4 0.7
2018-May-06 10:50N 10°19' W 061°29'0 0.0
2018-May-05 21:34N 10°19' W 061°29'1 4.1
2018-May-05 21:19N 10°19' W 061°30'1 0.0
2018-May-04 20:50N 10°19' W 061°31'5 9.5
2018-May-04 20:21N 10°23' W 061°33'3 9.9
2018-May-04 20:00N 10°26' W 061°35'510.2
2018-May-04 19:30N 10°31' W 061°34'510.3
2018-May-04 19:00N 10°36' W 061°33'1 2.2
2018-May-04 18:28N 10°37' W 061°32'0 0.1
2018-May-04 17:58N 10°37' W 061°32'0 0.0
2018-May-04 17:28N 10°37' W 061°32'0 0.0
2018-May-04 16:58N 10°37' W 061°32'0 0.0
2018-May-04 16:28N 10°37' W 061°32'0 0.0
2018-May-04 15:58N 10°37' W 061°32'0 0.0
2018-May-04 15:28N 10°37' W 061°32'0 0.0
2018-May-04 14:58N 10°37' W 061°32'0 0.0
2018-May-04 14:28N 10°37' W 061°32'0 0.0
2018-May-04 13:58N 10°37' W 061°32'0 0.0
2018-May-04 13:28N 10°37' W 061°32'0 0.0
2018-May-04 12:58N 10°37' W 061°32'0 0.0
2018-May-04 12:28N 10°37' W 061°32'0 0.0
2018-May-04 11:58N 10°37' W 061°32'0 0.0
2018-May-04 11:28N 10°37' W 061°32'0 0.1
2018-May-04 10:58N 10°37' W 061°32'0 0.0
2018-May-04 10:28N 10°37' W 061°32'0 0.0
2018-May-04 09:58N 10°37' W 061°32'0 0.0
2018-May-04 09:28N 10°37' W 061°32'0 0.0
2018-May-04 08:58N 10°37' W 061°32'0 0.0
2018-May-04 08:28N 10°37' W 061°32'0 0.0
2018-May-04 07:58N 10°37' W 061°32'0 0.0
2018-May-04 07:28N 10°37' W 061°32'0 0.0
2018-May-04 06:58N 10°37' W 061°32'0 0.0
2018-May-04 06:28N 10°37' W 061°32'0 0.0
2018-May-04 05:58N 10°37' W 061°32'0 0.0
2018-May-04 05:25N 10°37' W 061°32'0 0.0
2018-May-04 04:58N 10°37' W 061°32'0 0.0
2018-May-04 04:28N 10°37' W 061°32'0 0.0
2018-May-04 03:58N 10°37' W 061°32'0 0.0
2018-May-04 03:28N 10°37' W 061°32'0 0.0
2018-May-04 02:58N 10°37' W 061°32'0 0.0
2018-May-04 02:28N 10°37' W 061°32'0 0.0
2018-May-04 01:55N 10°37' W 061°32'0 0.0
2018-May-04 01:28N 10°37' W 061°32'0 0.0
2018-May-04 00:55N 10°37' W 061°32'0 0.0
2018-May-04 00:28N 10°37' W 061°32'0 0.0
2018-May-03 23:58N 10°37' W 061°32'0 0.0
2018-May-03 23:28N 10°37' W 061°32'0 0.0
2018-May-03 22:58N 10°37' W 061°32'0 0.0
2018-May-03 22:28N 10°37' W 061°32'0 0.0
2018-May-03 21:58N 10°37' W 061°32'0 0.0
2018-May-03 21:28N 10°37' W 061°32'0 0.0
2018-May-03 20:58N 10°37' W 061°32'0 0.0
2018-May-03 20:28N 10°37' W 061°32'0 0.0
2018-May-03 19:58N 10°37' W 061°32'0 0.0
2018-May-03 19:28N 10°37' W 061°32'0 0.0
2018-May-03 18:55N 10°37' W 061°32'0 0.0
2018-May-03 18:28N 10°37' W 061°32'0 0.0
2018-May-03 17:58N 10°37' W 061°32'0 0.0
2018-May-03 17:25N 10°37' W 061°32'0 0.0
2018-May-03 16:58N 10°37' W 061°32'0 0.0
2018-May-03 16:28N 10°37' W 061°32'0 0.0
2018-May-03 15:58N 10°37' W 061°32'0 0.0
2018-May-03 15:28N 10°37' W 061°32'0 0.0
2018-May-03 14:58N 10°37' W 061°32'0 0.0
2018-May-03 14:28N 10°37' W 061°32'0 0.0
2018-May-03 13:58N 10°37' W 061°32'0 0.0
2018-May-03 13:28N 10°37' W 061°32'0 0.0
2018-May-03 12:58N 10°37' W 061°32'0 0.0
2018-May-03 12:28N 10°37' W 061°32'0 0.0
2018-May-03 11:58N 10°37' W 061°32'0 0.0
2018-May-03 11:28N 10°37' W 061°32'0 0.0
2018-May-03 10:58N 10°37' W 061°32'0 0.0
2018-May-03 10:28N 10°37' W 061°32'0 0.0
2018-May-03 09:58N 10°37' W 061°32'0 0.0
2018-May-03 09:28N 10°37' W 061°32'0 0.0
2018-May-03 08:58N 10°37' W 061°32'0 0.0
2018-May-03 08:28N 10°37' W 061°32'0 0.0
2018-May-03 07:58N 10°37' W 061°32'0 0.0
2018-May-03 07:28N 10°37' W 061°32'0 0.0
2018-May-03 06:58N 10°37' W 061°32'0 0.0
2018-May-03 06:28N 10°37' W 061°32'0 0.0
2018-May-03 05:58N 10°37' W 061°32'0 0.0
2018-May-03 05:28N 10°37' W 061°32'0 0.0
2018-May-03 04:58N 10°37' W 061°32'0 0.0
2018-May-03 04:28N 10°37' W 061°32'0 0.0
2018-May-03 03:58N 10°37' W 061°32'0 0.0
2018-May-03 03:28N 10°37' W 061°32'0 0.0
2018-May-03 02:58N 10°37' W 061°32'0 0.0
2018-May-03 02:28N 10°37' W 061°32'0 0.0
2018-May-03 01:58N 10°37' W 061°32'0 0.0
2018-May-03 01:28N 10°37' W 061°32'0 0.0
2018-May-03 00:58N 10°37' W 061°32'0 0.0
2018-May-03 00:28N 10°37' W 061°32'0 0.0
2018-May-02 23:55N 10°37' W 061°32'0 0.0
2018-May-02 23:28N 10°37' W 061°32'0 0.0
2018-May-02 22:58N 10°37' W 061°32'0 0.0
2018-May-02 22:28N 10°37' W 061°32'0 0.0
2018-May-02 21:58N 10°37' W 061°32'0 0.0
2018-May-02 21:25N 10°37' W 061°32'0 0.0
2018-May-02 20:58N 10°37' W 061°32'0 0.0
2018-May-02 20:28N 10°37' W 061°32'0 0.0
2018-May-02 19:58N 10°37' W 061°32'0 0.0
2018-May-02 19:28N 10°37' W 061°32'0 0.0
2018-May-02 18:55N 10°37' W 061°32'0 0.0
2018-May-02 18:28N 10°37' W 061°32'0 0.0
2018-May-02 17:58N 10°37' W 061°32'0 0.1
2018-May-02 17:31N 10°37' W 061°32'0 0.1
2018-May-02 16:58N 10°37' W 061°32'0 0.0
2018-May-02 16:28N 10°37' W 061°32'0 0.0
2018-May-02 15:58N 10°37' W 061°32'0 0.0
2018-May-02 15:28N 10°37' W 061°32'0 0.0
2018-May-02 14:58N 10°37' W 061°32'0 0.0
2018-May-02 14:28N 10°37' W 061°32'0 0.0
2018-May-02 13:58N 10°37' W 061°32'0 0.0
2018-May-02 13:28N 10°37' W 061°32'0 0.0
2018-May-02 12:58N 10°37' W 061°32'0 0.0
2018-May-02 12:28N 10°37' W 061°32'0 0.0
2018-May-02 11:58N 10°37' W 061°32'0 0.0
2018-May-02 11:28N 10°37' W 061°32'0 0.0
2018-May-02 10:57N 10°37' W 061°32'0 0.0
2018-May-02 10:28N 10°37' W 061°32'0 0.0
2018-May-02 09:58N 10°37' W 061°32'0 0.1
2018-May-02 09:27N 10°37' W 061°32'0 0.0
2018-May-02 09:00N 10°37' W 061°32'0 0.0
2018-May-02 08:28N 10°37' W 061°32'0 0.0
2018-May-02 07:58N 10°37' W 061°32'0 0.0
2018-May-02 07:30N 10°37' W 061°32'0 0.0
2018-May-02 06:58N 10°37' W 061°32'0 0.0
2018-May-02 06:28N 10°37' W 061°32'0 0.0
2018-May-02 05:58N 10°37' W 061°32'0 0.1
2018-May-02 05:27N 10°37' W 061°32'0 0.0
2018-May-02 04:58N 10°37' W 061°32'0 0.0
2018-May-02 04:28N 10°37' W 061°32'0 0.0
2018-May-02 04:00N 10°37' W 061°32'0 0.0
2018-May-02 03:28N 10°37' W 061°32'0 0.0
2018-May-02 03:01N 10°37' W 061°32'0 0.0
2018-May-02 02:28N 10°37' W 061°32'0 0.0
2018-May-02 01:58N 10°37' W 061°32'0 0.0
2018-May-02 01:27N 10°37' W 061°32'0 0.0
2018-May-02 00:58N 10°37' W 061°32'0 0.0
2018-May-02 00:28N 10°37' W 061°32'0 0.0
2018-May-01 23:58N 10°37' W 061°32'0 0.0
2018-May-01 23:30N 10°37' W 061°32'0 0.0
2018-May-01 22:57N 10°37' W 061°32'0 0.0
2018-May-01 22:30N 10°37' W 061°32'0 0.0
2018-May-01 21:58N 10°37' W 061°32'0 0.0
2018-May-01 21:31N 10°37' W 061°32'0 0.0
2018-May-01 20:58N 10°37' W 061°32'0 0.0
2018-May-01 20:28N 10°37' W 061°32'0 0.0
2018-May-01 20:00N 10°37' W 061°32'0 0.0
2018-May-01 19:31N 10°37' W 061°32'0 0.0
2018-May-01 19:00N 10°37' W 061°32'0 0.0
2018-May-01 18:30N 10°37' W 061°32'0 0.0
2018-May-01 17:57N 10°37' W 061°32'0 0.0
2018-May-01 17:31N 10°37' W 061°32'0 0.0
2018-May-01 17:01N 10°37' W 061°32'0 0.0
2018-May-01 16:30N 10°37' W 061°32'0 0.1
2018-May-01 16:00N 10°37' W 061°32'0 0.0
2018-May-01 15:30N 10°37' W 061°32'0 0.0
2018-May-01 15:00N 10°37' W 061°32'0 0.0
2018-May-01 14:27N 10°37' W 061°32'0 0.0
2018-May-01 14:00N 10°37' W 061°32'0 0.0
2018-May-01 13:30N 10°37' W 061°32'0 0.0
2018-May-01 13:01N 10°37' W 061°32'0 0.0
2018-May-01 12:30N 10°37' W 061°32'0 0.0
2018-May-01 12:01N 10°37' W 061°32'0 0.0
2018-May-01 11:31N 10°37' W 061°32'0 0.0
2018-May-01 11:01N 10°37' W 061°32'0 0.0
2018-May-01 10:31N 10°37' W 061°32'0 0.0
2018-May-01 10:00N 10°37' W 061°32'0 0.0
2018-May-01 09:30N 10°37' W 061°32'0 0.0
2018-May-01 09:00N 10°37' W 061°32'0 0.0
2018-May-01 08:30N 10°37' W 061°32'0 0.0
2018-May-01 08:00N 10°37' W 061°32'0 0.0
2018-May-01 07:30N 10°37' W 061°32'0 0.0
2018-May-01 07:00N 10°37' W 061°32'0 0.0
2018-May-01 06:30N 10°37' W 061°32'0 0.1
2018-May-01 06:00N 10°37' W 061°32'0 0.2
2018-May-01 05:30N 10°37' W 061°32'0 0.0
2018-May-01 05:00N 10°37' W 061°32'0 0.0
2018-May-01 04:31N 10°37' W 061°32'0 0.1
2018-May-01 04:00N 10°37' W 061°32'0 0.1
2018-May-01 03:30N 10°37' W 061°32'0 0.0
2018-May-01 03:00N 10°37' W 061°32'0 0.0
2018-May-01 02:31N 10°37' W 061°32'0 0.0
2018-May-01 02:00N 10°37' W 061°32'0 0.0
2018-May-01 01:30N 10°37' W 061°32'0 0.0
2018-May-01 01:00N 10°37' W 061°32'0 0.0
2018-May-01 00:30N 10°37' W 061°32'0 0.0
2018-May-01 00:00N 10°37' W 061°32'0 0.0
2018-Apr-30 23:24N 10°37' W 061°32'0 0.0
2018-Apr-30 22:57N 10°37' W 061°32'0 0.0
2018-Apr-30 22:30N 10°37' W 061°32'0 0.0
2018-Apr-30 22:00N 10°37' W 061°32'0 0.0
2018-Apr-30 21:30N 10°37' W 061°32'0 0.0
2018-Apr-30 21:00N 10°37' W 061°32'0 0.0
2018-Apr-30 20:30N 10°37' W 061°32'0 0.0
2018-Apr-30 20:00N 10°37' W 061°32'0 0.0
2018-Apr-30 19:30N 10°37' W 061°32'0 0.0
2018-Apr-30 19:00N 10°37' W 061°32'0 0.0
2018-Apr-30 18:30N 10°37' W 061°32'0 0.0
2018-Apr-30 17:57N 10°37' W 061°32'0 0.0
2018-Apr-30 17:30N 10°37' W 061°32'0 0.0
2018-Apr-30 17:00N 10°37' W 061°32'0 0.0
2018-Apr-30 16:30N 10°37' W 061°32'0 0.0
2018-Apr-30 16:00N 10°37' W 061°32'0 0.0
2018-Apr-30 15:30N 10°37' W 061°32'0 0.0
2018-Apr-30 15:00N 10°37' W 061°32'0 0.0
2018-Apr-30 14:30N 10°37' W 061°32'0 0.0
2018-Apr-30 14:00N 10°37' W 061°32'0 0.0
2018-Apr-30 13:30N 10°37' W 061°32'0 0.0
2018-Apr-30 13:00N 10°37' W 061°32'0 0.0
2018-Apr-30 12:30N 10°37' W 061°32'0 0.0
2018-Apr-30 11:57N 10°37' W 061°32'0 0.0
2018-Apr-30 11:30N 10°37' W 061°32'0 0.0
2018-Apr-30 11:00N 10°37' W 061°32'0 0.0
2018-Apr-30 10:30N 10°37' W 061°32'0 0.0
2018-Apr-30 10:00N 10°37' W 061°32'0 0.0
2018-Apr-30 09:30N 10°37' W 061°32'0 0.0
2018-Apr-30 09:00N 10°37' W 061°32'0 0.0
2018-Apr-30 08:30N 10°37' W 061°32'0 0.0
2018-Apr-30 08:00N 10°37' W 061°32'0 0.0
2018-Apr-30 07:30N 10°37' W 061°32'0 0.1
2018-Apr-30 07:00N 10°37' W 061°32'0 0.0
2018-Apr-30 06:30N 10°37' W 061°32'0 0.0
2018-Apr-30 06:00N 10°37' W 061°32'0 0.0
2018-Apr-30 05:30N 10°37' W 061°32'0 0.0
2018-Apr-30 05:00N 10°37' W 061°32'0 0.0
2018-Apr-30 04:27N 10°37' W 061°32'0 0.1
2018-Apr-30 04:00N 10°37' W 061°32'0 0.0
2018-Apr-30 03:30N 10°37' W 061°32'0 0.1
2018-Apr-30 03:00N 10°37' W 061°32'0 0.0
2018-Apr-30 02:30N 10°37' W 061°32'0 0.0
2018-Apr-30 02:00N 10°37' W 061°32'0 0.0
2018-Apr-30 01:30N 10°37' W 061°32'0 0.0
2018-Apr-30 01:00N 10°37' W 061°32'0 0.0
2018-Apr-30 00:30N 10°37' W 061°32'0 0.0
2018-Apr-30 00:00N 10°37' W 061°32'0 0.0
2018-Apr-29 23:30N 10°37' W 061°32'0 0.0
2018-Apr-29 23:00N 10°37' W 061°32'0 0.0
2018-Apr-29 22:30N 10°37' W 061°32'0 0.0
2018-Apr-29 22:00N 10°37' W 061°32'0 0.0
2018-Apr-29 21:30N 10°37' W 061°32'0 0.0
2018-Apr-29 21:00N 10°37' W 061°32'0 0.0
2018-Apr-29 20:30N 10°37' W 061°32'0 0.0
2018-Apr-29 20:00N 10°37' W 061°32'0 0.0
2018-Apr-29 19:30N 10°37' W 061°32'0 0.0
2018-Apr-29 19:00N 10°37' W 061°32'0 0.0
2018-Apr-29 18:30N 10°37' W 061°32'0 0.0
2018-Apr-29 17:54N 10°37' W 061°32'0 0.0
2018-Apr-29 17:30N 10°37' W 061°32'0 0.0
2018-Apr-29 17:00N 10°37' W 061°32'0 0.0
2018-Apr-29 16:30N 10°37' W 061°32'0 0.0
2018-Apr-29 16:00N 10°37' W 061°32'0 0.0
2018-Apr-29 15:30N 10°37' W 061°32'0 0.0
2018-Apr-29 15:00N 10°37' W 061°32'0 0.0
2018-Apr-29 14:30N 10°37' W 061°32'0 0.0
2018-Apr-29 14:00N 10°37' W 061°32'0 0.0
2018-Apr-29 13:30N 10°37' W 061°32'0 0.1
2018-Apr-29 13:00N 10°37' W 061°32'0 0.0
2018-Apr-29 12:30N 10°37' W 061°32'0 0.0
2018-Apr-29 12:00N 10°37' W 061°32'0 0.0
2018-Apr-29 11:30N 10°37' W 061°32'0 0.0
2018-Apr-29 11:00N 10°37' W 061°32'0 0.0
2018-Apr-29 10:27N 10°37' W 061°32'0 0.0
2018-Apr-29 10:00N 10°37' W 061°32'0 0.0
2018-Apr-29 09:30N 10°37' W 061°32'0 0.0
2018-Apr-29 09:00N 10°37' W 061°32'0 0.0
2018-Apr-29 08:30N 10°37' W 061°32'0 0.0
2018-Apr-29 08:00N 10°37' W 061°32'0 0.0
2018-Apr-29 07:30N 10°37' W 061°32'0 0.0
2018-Apr-29 07:00N 10°37' W 061°32'0 0.0
2018-Apr-29 06:30N 10°37' W 061°32'0 0.0
2018-Apr-29 06:00N 10°37' W 061°32'0 0.0
2018-Apr-29 05:30N 10°37' W 061°32'0 0.0
2018-Apr-29 05:00N 10°37' W 061°32'0 0.0
2018-Apr-29 04:30N 10°37' W 061°32'0 0.0
2018-Apr-29 04:00N 10°37' W 061°32'0 0.0
2018-Apr-29 03:30N 10°37' W 061°32'0 0.0
2018-Apr-29 02:57N 10°37' W 061°32'0 0.0
2018-Apr-29 02:30N 10°37' W 061°32'0 0.0
2018-Apr-29 02:00N 10°37' W 061°32'0 0.0
2018-Apr-29 01:30N 10°37' W 061°32'0 0.0
2018-Apr-29 01:00N 10°37' W 061°32'0 0.0
2018-Apr-29 00:30N 10°37' W 061°32'0 0.0
2018-Apr-29 00:00N 10°37' W 061°32'0 0.0
2018-Apr-28 23:30N 10°37' W 061°32'0 0.0
2018-Apr-28 23:00N 10°37' W 061°32'0 0.0
2018-Apr-28 22:30N 10°37' W 061°32'0 0.0
2018-Apr-28 22:00N 10°37' W 061°32'0 0.0
2018-Apr-28 21:27N 10°37' W 061°32'0 0.0
2018-Apr-28 21:00N 10°37' W 061°32'0 0.0
2018-Apr-28 20:30N 10°37' W 061°32'0 0.0
2018-Apr-28 20:00N 10°37' W 061°32'0 0.0
2018-Apr-28 19:26N 10°37' W 061°32'0 0.1
2018-Apr-28 18:59N 10°37' W 061°32'0 0.2
2018-Apr-28 18:31N 10°37' W 061°32'2 4.9
2018-Apr-28 18:00N 10°36' W 061°34'510.0
2018-Apr-28 17:30N 10°36' W 061°40'510.7
2018-Apr-28 17:01N 10°38' W 061°44'12 6.7
2018-Apr-28 15:11N 10°48' W 061°37'210.6
2018-Apr-28 14:59N 10°49' W 061°35'  

Dump ship's entire track history